Campo di Volo Paretano Fly

IT-0566 · Apulia, Włochy

Historia METAR IT-0566 · Campo di Volo Paretano Fly

Poniżej widzisz METAR-y z ostatnich kilku dni. Wybierz rok, aby przeglądać starsze METAR-y, począwszy od roku 2007.

16 lipca 2024

Czas Kod Pogoda Temp. Widoczność Sufit Wiatr METAR/SPECI
01:55
V
24 °C 10 km+ - 020° 020° 3 kt METAR LIBV 152355Z 02003KT CAVOK 24/12 Q1013
00:55
V
25 °C 10 km+ - 340° 340° 4 kt METAR LIBV 152255Z 34004KT CAVOK 25/12 Q1013

15 lipca 2024

Czas Kod Pogoda Temp. Widoczność Sufit Wiatr METAR/SPECI
23:55
V
26 °C 10 km+ - 290° 290° 3 kt METAR LIBV 152155Z 29003KT CAVOK 26/12 Q1013
22:55
V
27 °C 10 km+ - 280° 280° 4 kt METAR LIBV 152055Z 28004KT CAVOK 27/12 Q1013
21:55
V
28 °C 10 km+ - 260° 260° 4 kt METAR LIBV 151955Z 26004KT CAVOK 28/12 Q1013
20:55
V
30 °C 10 km+ - 350° 350° 4 kt METAR LIBV 151855Z 35004KT CAVOK 30/13 Q1013
19:55
V
32 °C 10 km+ - 010° 010° 9 kt METAR LIBV 151755Z 01009KT CAVOK 32/12 Q1013
18:55
V
33 °C 10 km+ - 360° 360° 12 kt METAR LIBV 151655Z 36012KT CAVOK 33/12 Q1012
17:55
V
34 °C 10 km+ - 010° 010° 13 kt METAR LIBV 151555Z 01013KT CAVOK 34/13 Q1012
16:55
V
35 °C 10 km+ - 010° 010° 13 kt METAR LIBV 151455Z 01013KT CAVOK 35/13 Q1013
15:55
V
35 °C 10 km+ - 010° 010° 12 kt METAR LIBV 151355Z 01012KT CAVOK 35/13 Q1013
14:55
V
35 °C 10 km+ - 360° 360° 11 kt METAR LIBV 151255Z 36011KT CAVOK 35/13 Q1013
13:55
V
35 °C 10 km+ - 360° 360° 9 kt METAR LIBV 151155Z 36009KT CAVOK 35/13 Q1013
12:55
V
35 °C 10 km+ - 010° 010° 13 kt METAR LIBV 151055Z 01013KT CAVOK 35/12 Q1014
11:55
V
35 °C 10 km+ - 010° 010° 12 kt METAR LIBV 150955Z 01012KT CAVOK 35/10 Q1014
10:55
V
34 °C 10 km+ - 360° 360° 11 kt METAR LIBV 150855Z 36011KT CAVOK 34/09 Q1014 RMK SKC VIS MIN 9999 WIND THR32 02011KT WIND THR14 01012KT BLU
09:55
V
33 °C 10 km+ - 360° 360° 11 kt METAR LIBV 150755Z 36011KT CAVOK 33/09 Q1014
08:55
V
32 °C 10 km+ - 340° 340° 10 kt METAR LIBV 150655Z 34010KT CAVOK 32/08 Q1014
07:55
V
30 °C 10 km+ - 340° 340° 8 kt METAR LIBV 150555Z 34008KT CAVOK 30/09 Q1014
06:55
V
26 °C 10 km+ - 320° 320° 7 kt METAR LIBV 150455Z 32007KT CAVOK 26/13 Q1013
05:55
V
21 °C 10 km+ - 320° 320° 3 kt METAR LIBV 150355Z 32003KT CAVOK 21/11 Q1013
04:55
V
21 °C 10 km+ - 330° 330° 3 kt METAR LIBV 150255Z 33003KT CAVOK 21/13 Q1013
03:55
V
22 °C 10 km+ - 330° 330° 3 kt METAR LIBV 150155Z 33003KT CAVOK 22/13 Q1013
02:55
V
23 °C 10 km+ - Var Var 2 kt METAR LIBV 150055Z VRB02KT CAVOK 23/14 Q1013
01:55
V
23 °C 10 km+ - 330° 330° 4 kt METAR LIBV 142355Z 33004KT CAVOK 23/15 Q1013
00:55
V
24 °C 10 km+ - 010° 010° 2 kt METAR LIBV 142255Z 01002KT CAVOK 24/15 Q1014

14 lipca 2024

Czas Kod Pogoda Temp. Widoczność Sufit Wiatr METAR/SPECI
23:55
V
25 °C 10 km+ - 350° 350° 3 kt METAR LIBV 142155Z 35003KT CAVOK 25/15 Q1014
22:55
V
26 °C 10 km+ - 340° 340° 3 kt METAR LIBV 142055Z 34003KT CAVOK 26/17 Q1014
21:55
V
27 °C 10 km+ - Var Var 2 kt METAR LIBV 141955Z VRB02KT CAVOK 27/16 Q1014
20:55
V
28 °C 10 km+ - 350° 350° 6 kt METAR LIBV 141855Z 35006KT CAVOK 28/16 Q1013
19:55
V
29 °C 10 km+ - 010° 010° 8 kt METAR LIBV 141755Z 01008KT CAVOK 29/16 Q1013
18:55
V
31 °C 10 km+ - 360° 360° 11 kt METAR LIBV 141655Z 36011KT CAVOK 31/17 Q1013
17:55
V
32 °C 10 km+ - 350° 350° 12 kt METAR LIBV 141555Z 35012KT CAVOK 32/18 Q1013 RMK SCT SCT200 VIS MIN 9999 WIND THR32 01011KT WIND THR14 36013KT BLU
16:55
V
32 °C 10 km+ - 360° 360° 12 kt METAR LIBV 141455Z 36012KT CAVOK 32/20 Q1013 RMK BKN BKN200 VIS MIN 9999 WIND THR32 02013KT WIND THR14 36012KT BLU
15:55
V
32 °C 10 km+ - 360° 360° 11 kt METAR LIBV 141355Z 36011KT 9999 FEW050 32/20 Q1013
14:55
V
34 °C 10 km+ - 360° 360° 12 kt METAR LIBV 141255Z 36012KT 9999 FEW050 34/20 Q1013 RMK SCT SCT200 VIS MIN 9999 WIND THR32 01012KT WIND THR14 02012KT BLU
13:55
V
36 °C 10 km+ - 010° 010° 12 kt METAR LIBV 141155Z 01012KT 9999 FEW050 36/15 Q1012
12:55
V
36 °C 10 km+ - 350° 350° 9 kt METAR LIBV 141055Z 35009KT CAVOK 36/12 Q1012 RMK FEW FEW200 VIS MIN 9999 WIND THR32 36010KT WIND THR14 01010KT BLU
11:55
V
37 °C 10 km+ - Var Var 3 kt METAR LIBV 140955Z VRB03KT CAVOK 37/09 Q1012 RMK FEW FEW200 VIS MIN 9999 WIND THR32 31006KT WIND THR14 VRB03KT BLU
10:55
V
36 °C 10 km+ - 020° 020° 4 kt METAR LIBV 140855Z 02004KT CAVOK 36/08 Q1013 RMK SKC VIS MIN 9999 WIND THR32 36005KT WIND THR14 06004KT BLU
09:55
V
34 °C 10 km+ - 020° 020° 5 kt METAR LIBV 140755Z 02005KT CAVOK 34/08 Q1013
08:55
V
34 °C 10 km+ - 310° 310° 8 kt METAR LIBV 140655Z 31008KT CAVOK 34/08 Q1013 RMK SKC VIS MIN 9999 WIND THR32 33007KT WIND THR14 32008KT BLU
07:55
V
31 °C 10 km+ - 300° 300° 7 kt METAR LIBV 140555Z 30007KT CAVOK 31/12 Q1013 RMK SKC VIS MIN 9999 WIND THR32 31007KT WIND THR14 30008KT BLU
06:55
V
25 °C 10 km+ - 350° 350° 2 kt METAR LIBV 140455Z 35002KT CAVOK 25/16 Q1012
05:55
V
23 °C 10 km+ - 360° 360° 0 kt METAR LIBV 140355Z 00000KT CAVOK 23/15 Q1012 RMK SKC VIS MIN 9999 WIND THR32 34003KT WIND THR14 00000KT BLU
04:55
V
23 °C 10 km+ - 360° 360° 0 kt METAR LIBV 140255Z 00000KT CAVOK 23/15 Q1012 RMK SKC VIS MIN 9999 WIND THR32 VRB03KT WIND THR14 VRB02KT BLU
03:55
V
24 °C 10 km+ - 360° 360° 0 kt METAR LIBV 140155Z 00000KT CAVOK 24/15 Q1012 RMK SKC VIS MIN 9999 WIND THR32 00000KT WIND THR14 00000KT BLU
02:55
V
24 °C 10 km+ - 360° 360° 0 kt METAR LIBV 140055Z 00000KT CAVOK 24/16 Q1012 RMK SKC VIS MIN 9999 WIND THR32 00000KT WIND THR14 00000KT BLU
01:55
V
25 °C 10 km+ - 360° 360° 0 kt METAR LIBV 132355Z 00000KT CAVOK 25/16 Q1012
00:55
V
26 °C 10 km+ - 180° 180° 2 kt METAR LIBV 132255Z 18002KT CAVOK 26/17 Q1012

13 lipca 2024

Czas Kod Pogoda Temp. Widoczność Sufit Wiatr METAR/SPECI
23:55
V
26 °C 10 km+ - 180° 180° 5 kt METAR LIBV 132155Z 18005KT CAVOK 26/17 Q1012 RMK SKC VIS MIN 9999 WIND THR32 20005KT WIND THR14 18004KT BLU
22:55
V
27 °C 10 km+ - 210° 210° 4 kt METAR LIBV 132055Z 21004KT CAVOK 27/17 Q1012
21:55
V
28 °C 10 km+ - 180° 180° 5 kt METAR LIBV 131955Z 18005KT CAVOK 28/17 Q1012 RMK SKC VIS MIN 9999 WIND THR32 17005KT WIND THR14 19004KT BLU
20:55
V
29 °C 10 km+ - 160° 160° 9 kt METAR LIBV 131855Z 16009KT CAVOK 29/16 Q1011 RMK FEW FEW200 VIS MIN 9999 WIND THR32 17006KT WIND THR14 18007KT BLU
19:55
V
31 °C 10 km+ - 160° 160° 10 kt METAR LIBV 131755Z 16010KT CAVOK 31/16 Q1011
18:55
V
33 °C 10 km+ - 170° 170° 12 kt METAR LIBV 131655Z 17012KT CAVOK 33/16 Q1011 RMK SKC VIS MIN 9999 WIND THR32 17011KT WIND THR14 17013KT BLU
17:55
V
34 °C 10 km+ - 170° 170° 14 kt METAR LIBV 131555Z 17014KT CAVOK 34/16 Q1011 RMK FEW FEW200 VIS MIN 9999 WIND THR32 19012KT WIND THR14 17013KT BLU
16:55
V
35 °C 10 km+ - 150° 150° 15 kt METAR LIBV 131455Z 15015KT CAVOK 35/16 Q1011 RMK FEW FEW200 VIS MIN 9999 WIND THR32 18013KT WIND THR14 16013KT BLU
15:55
V
37 °C 10 km+ - 170° 170° 12 kt METAR LIBV 131355Z 17012KT 9999 FEW050 37/16 Q1011 RMK FEW VIS MIN 9999 WIND THR32 17012KT WIND THR14 16013KT BLU
14:55
V
36 °C 10 km+ - 150° 150° 12 kt METAR LIBV 131255Z 15012KT 9999 FEW050 36/17 Q1011
13:55
V
37 °C 10 km+ - 160° 160° 12 kt METAR LIBV 131155Z 16012KT CAVOK 37/16 Q1011
12:55
V
36 °C 10 km+ - 150° 150° 10 kt METAR LIBV 131055Z 15010KT 9999 FEW050 36/17 Q1011 RMK FEW VIS MIN 9999 WIND THR32 18010KT WIND THR14 17009KT BLU
11:55
V
36 °C 10 km+ - 170° 170° 8 kt METAR LIBV 130955Z 17008KT CAVOK 36/18 Q1012 RMK SKC VIS MIN 9999 WIND THR32 19008KT WIND THR14 17008KT BLU
10:55
V
34 °C 10 km+ - 150° 150° 6 kt METAR LIBV 130855Z 15006KT CAVOK 34/16 Q1012 RMK SKC VIS MIN 9999 WIND THR32 18006KT WIND THR14 14007KT BLU
09:55
V
34 °C 10 km+ - 170° 170° 7 kt METAR LIBV 130755Z 17007KT CAVOK 34/16 Q1012 RMK SKC VIS MIN 9999 WIND THR32 16005KT WIND THR14 09003KT BLU
08:55
V
33 °C 10 km+ - Var Var 2 kt METAR LIBV 130655Z VRB02KT CAVOK 33/15 Q1012 RMK SKC VIS MIN 9999 WIND THR32 VRB02KT WIND THR14 VRB02KT BLU
07:55
V
29 °C 10 km+ - Var Var 1 kt METAR LIBV 130555Z VRB01KT CAVOK 29/17 Q1012 RMK SKC VIS MIN 9999 WIND THR32 VRB02KT WIND THR14 VRB01KT BLU
Zgłoś zmianę